sensor_id;sensor_type;location;lat;lon;timestamp;P1;durP1;ratioP1;P2;durP2;ratioP2
41923;SDS011;27613;48.116;11.656;2022-10-16T00:01:22;7.47;;;1.85;;
41923;SDS011;27613;48.116;11.656;2022-10-16T00:03:50;1.90;;;1.55;;
41923;SDS011;27613;48.116;11.656;2022-10-16T00:06:17;6.07;;;2.25;;
41923;SDS011;27613;48.116;11.656;2022-10-16T00:08:44;1.63;;;1.25;;
41923;SDS011;27613;48.116;11.656;2022-10-16T00:11:11;3.33;;;1.25;;
41923;SDS011;27613;48.116;11.656;2022-10-16T00:13:43;3.40;;;1.67;;
41923;SDS011;27613;48.116;11.656;2022-10-16T00:16:10;2.35;;;1.50;;
41923;SDS011;27613;48.116;11.656;2022-10-16T00:18:37;2.25;;;1.50;;
41923;SDS011;27613;48.116;11.656;2022-10-16T00:21:04;3.40;;;1.60;;
41923;SDS011;27613;48.116;11.656;2022-10-16T00:23:32;2.03;;;1.40;;
41923;SDS011;27613;48.116;11.656;2022-10-16T00:25:59;4.78;;;1.50;;
41923;SDS011;27613;48.116;11.656;2022-10-16T00:28:29;7.50;;;1.50;;
41923;SDS011;27613;48.116;11.656;2022-10-16T00:30:55;4.43;;;2.35;;
41923;SDS011;27613;48.116;11.656;2022-10-16T00:33:21;2.90;;;1.60;;
41923;SDS011;27613;48.116;11.656;2022-10-16T00:35:47;2.33;;;1.70;;
41923;SDS011;27613;48.116;11.656;2022-10-16T00:38:13;2.13;;;1.50;;
41923;SDS011;27613;48.116;11.656;2022-10-16T00:40:39;3.08;;;1.83;;
41923;SDS011;27613;48.116;11.656;2022-10-16T00:43:31;2.72;;;1.75;;
41923;SDS011;27613;48.116;11.656;2022-10-16T00:48:57;2.03;;;1.50;;
41923;SDS011;27613;48.116;11.656;2022-10-16T00:51:30;1.42;;;1.05;;
41923;SDS011;27613;48.116;11.656;2022-10-16T00:53:58;3.83;;;1.60;;
41923;SDS011;27613;48.116;11.656;2022-10-16T00:56:25;1.98;;;1.30;;
41923;SDS011;27613;48.116;11.656;2022-10-16T00:58:50;2.65;;;1.65;;
41923;SDS011;27613;48.116;11.656;2022-10-16T01:01:16;1.92;;;1.40;;
41923;SDS011;27613;48.116;11.656;2022-10-16T01:03:42;2.20;;;1.50;;
41923;SDS011;27613;48.116;11.656;2022-10-16T01:08:53;4.13;;;1.52;;
41923;SDS011;27613;48.116;11.656;2022-10-16T01:12:18;2.97;;;1.35;;
41923;SDS011;27613;48.116;11.656;2022-10-16T01:14:37;6.88;;;1.60;;
41923;SDS011;27613;48.116;11.656;2022-10-16T01:17:22;2.28;;;1.30;;
41923;SDS011;27613;48.116;11.656;2022-10-16T01:20:32;1.85;;;1.33;;
41923;SDS011;27613;48.116;11.656;2022-10-16T01:28:27;1.45;;;1.13;;
41923;SDS011;27613;48.116;11.656;2022-10-16T01:31:18;2.25;;;1.40;;
41923;SDS011;27613;48.116;11.656;2022-10-16T01:33:47;3.05;;;1.30;;
41923;SDS011;27613;48.116;11.656;2022-10-16T01:36:22;2.38;;;1.45;;
41923;SDS011;27613;48.116;11.656;2022-10-16T01:38:56;1.75;;;1.20;;
41923;SDS011;27613;48.116;11.656;2022-10-16T01:41:43;2.65;;;1.40;;
41923;SDS011;27613;48.116;11.656;2022-10-16T01:44:16;1.80;;;1.30;;
41923;SDS011;27613;48.116;11.656;2022-10-16T01:46:50;2.80;;;1.35;;
41923;SDS011;27613;48.116;11.656;2022-10-16T01:49:17;3.45;;;1.20;;
41923;SDS011;27613;48.116;11.656;2022-10-16T01:51:44;1.70;;;1.15;;
41923;SDS011;27613;48.116;11.656;2022-10-16T01:54:14;1.98;;;1.20;;
41923;SDS011;27613;48.116;11.656;2022-10-16T01:56:42;3.90;;;1.17;;
41923;SDS011;27613;48.116;11.656;2022-10-16T01:59:10;3.55;;;1.80;;
41923;SDS011;27613;48.116;11.656;2022-10-16T02:01:40;1.80;;;1.42;;
41923;SDS011;27613;48.116;11.656;2022-10-16T02:04:13;2.60;;;1.40;;
41923;SDS011;27613;48.116;11.656;2022-10-16T02:06:46;2.38;;;1.25;;
41923;SDS011;27613;48.116;11.656;2022-10-16T02:09:12;2.40;;;1.20;;
41923;SDS011;27613;48.116;11.656;2022-10-16T02:11:40;2.30;;;1.23;;
41923;SDS011;27613;48.116;11.656;2022-10-16T02:14:06;1.85;;;1.40;;
41923;SDS011;27613;48.116;11.656;2022-10-16T02:16:33;1.92;;;1.23;;
41923;SDS011;27613;48.116;11.656;2022-10-16T02:19:04;2.30;;;1.30;;
41923;SDS011;27613;48.116;11.656;2022-10-16T02:21:34;3.97;;;1.35;;
41923;SDS011;27613;48.116;11.656;2022-10-16T02:27:03;2.85;;;1.65;;
41923;SDS011;27613;48.116;11.656;2022-10-16T02:29:34;8.07;;;1.55;;
41923;SDS011;27613;48.116;11.656;2022-10-16T02:32:04;2.47;;;1.30;;
41923;SDS011;27613;48.116;11.656;2022-10-16T02:34:32;4.32;;;1.30;;
41923;SDS011;27613;48.116;11.656;2022-10-16T02:36:59;2.88;;;1.58;;
41923;SDS011;27613;48.116;11.656;2022-10-16T02:39:27;2.00;;;1.27;;
41923;SDS011;27613;48.116;11.656;2022-10-16T02:41:54;2.55;;;1.38;;
41923;SDS011;27613;48.116;11.656;2022-10-16T02:44:20;1.85;;;1.33;;
41923;SDS011;27613;48.116;11.656;2022-10-16T02:46:45;1.83;;;1.20;;
41923;SDS011;27613;48.116;11.656;2022-10-16T02:49:11;4.25;;;1.48;;
41923;SDS011;27613;48.116;11.656;2022-10-16T02:51:36;5.15;;;1.90;;
41923;SDS011;27613;48.116;11.656;2022-10-16T02:54:02;1.60;;;1.00;;
41923;SDS011;27613;48.116;11.656;2022-10-16T02:56:28;3.00;;;1.38;;
41923;SDS011;27613;48.116;11.656;2022-10-16T02:58:54;2.25;;;1.42;;
41923;SDS011;27613;48.116;11.656;2022-10-16T03:01:20;2.25;;;1.20;;
41923;SDS011;27613;48.116;11.656;2022-10-16T03:03:46;3.90;;;1.65;;
41923;SDS011;27613;48.116;11.656;2022-10-16T03:06:12;1.85;;;1.15;;
41923;SDS011;27613;48.116;11.656;2022-10-16T03:08:38;2.20;;;1.40;;
41923;SDS011;27613;48.116;11.656;2022-10-16T03:11:03;1.77;;;1.27;;
41923;SDS011;27613;48.116;11.656;2022-10-16T03:13:29;5.00;;;1.65;;
41923;SDS011;27613;48.116;11.656;2022-10-16T03:15:54;5.95;;;1.80;;
41923;SDS011;27613;48.116;11.656;2022-10-16T03:18:20;2.67;;;1.52;;
41923;SDS011;27613;48.116;11.656;2022-10-16T03:20:46;1.67;;;1.27;;
41923;SDS011;27613;48.116;11.656;2022-10-16T03:23:11;1.83;;;1.38;;
41923;SDS011;27613;48.116;11.656;2022-10-16T03:25:37;10.38;;;1.48;;
41923;SDS011;27613;48.116;11.656;2022-10-16T03:28:02;3.42;;;1.48;;
41923;SDS011;27613;48.116;11.656;2022-10-16T03:30:28;1.70;;;1.30;;
41923;SDS011;27613;48.116;11.656;2022-10-16T03:32:54;2.20;;;1.50;;
41923;SDS011;27613;48.116;11.656;2022-10-16T03:35:20;3.33;;;1.42;;
41923;SDS011;27613;48.116;11.656;2022-10-16T03:37:46;4.25;;;1.50;;
41923;SDS011;27613;48.116;11.656;2022-10-16T03:40:12;5.70;;;1.63;;
41923;SDS011;27613;48.116;11.656;2022-10-16T03:42:38;1.77;;;1.20;;
41923;SDS011;27613;48.116;11.656;2022-10-16T03:45:04;2.58;;;1.70;;
41923;SDS011;27613;48.116;11.656;2022-10-16T03:47:30;3.17;;;1.70;;
41923;SDS011;27613;48.116;11.656;2022-10-16T03:49:57;2.45;;;1.70;;
41923;SDS011;27613;48.116;11.656;2022-10-16T03:52:23;2.85;;;1.48;;
41923;SDS011;27613;48.116;11.656;2022-10-16T03:54:49;2.85;;;1.58;;
41923;SDS011;27613;48.116;11.656;2022-10-16T03:57:15;2.58;;;1.52;;
41923;SDS011;27613;48.116;11.656;2022-10-16T03:59:40;2.45;;;1.50;;
41923;SDS011;27613;48.116;11.656;2022-10-16T04:02:06;1.77;;;1.40;;
41923;SDS011;27613;48.116;11.656;2022-10-16T04:04:31;1.55;;;1.27;;
41923;SDS011;27613;48.116;11.656;2022-10-16T04:06:57;4.05;;;1.73;;
41923;SDS011;27613;48.116;11.656;2022-10-16T04:09:22;2.10;;;1.60;;
41923;SDS011;27613;48.116;11.656;2022-10-16T04:11:48;2.22;;;1.45;;
41923;SDS011;27613;48.116;11.656;2022-10-16T04:14:13;2.05;;;1.38;;
41923;SDS011;27613;48.116;11.656;2022-10-16T04:16:39;3.40;;;1.42;;
41923;SDS011;27613;48.116;11.656;2022-10-16T04:19:05;1.58;;;1.05;;
41923;SDS011;27613;48.116;11.656;2022-10-16T04:21:30;2.10;;;1.13;;
41923;SDS011;27613;48.116;11.656;2022-10-16T04:23:56;3.08;;;1.35;;
41923;SDS011;27613;48.116;11.656;2022-10-16T04:26:21;2.42;;;1.30;;
41923;SDS011;27613;48.116;11.656;2022-10-16T04:28:47;2.42;;;1.50;;
41923;SDS011;27613;48.116;11.656;2022-10-16T04:31:12;1.67;;;1.17;;
41923;SDS011;27613;48.116;11.656;2022-10-16T04:33:38;4.95;;;1.52;;
41923;SDS011;27613;48.116;11.656;2022-10-16T04:36:03;1.48;;;1.10;;
41923;SDS011;27613;48.116;11.656;2022-10-16T04:38:30;1.20;;;1.00;;
41923;SDS011;27613;48.116;11.656;2022-10-16T04:40:55;2.03;;;1.00;;
41923;SDS011;27613;48.116;11.656;2022-10-16T04:43:21;2.28;;;1.20;;
41923;SDS011;27613;48.116;11.656;2022-10-16T04:45:48;1.58;;;1.05;;
41923;SDS011;27613;48.116;11.656;2022-10-16T04:48:15;1.58;;;1.02;;
41923;SDS011;27613;48.116;11.656;2022-10-16T04:50:41;1.20;;;1.10;;
41923;SDS011;27613;48.116;11.656;2022-10-16T04:53:07;2.58;;;1.23;;
41923;SDS011;27613;48.116;11.656;2022-10-16T04:55:32;3.83;;;1.60;;
41923;SDS011;27613;48.116;11.656;2022-10-16T04:57:58;2.28;;;1.40;;
41923;SDS011;27613;48.116;11.656;2022-10-16T05:00:23;1.08;;;0.85;;
41923;SDS011;27613;48.116;11.656;2022-10-16T05:02:49;2.03;;;1.30;;
41923;SDS011;27613;48.116;11.656;2022-10-16T05:05:15;3.38;;;1.30;;
41923;SDS011;27613;48.116;11.656;2022-10-16T05:07:41;2.33;;;1.17;;
41923;SDS011;27613;48.116;11.656;2022-10-16T05:10:07;3.33;;;1.17;;
41923;SDS011;27613;48.116;11.656;2022-10-16T05:12:33;3.47;;;1.23;;
41923;SDS011;27613;48.116;11.656;2022-10-16T05:14:59;1.67;;;1.25;;
41923;SDS011;27613;48.116;11.656;2022-10-16T05:17:25;2.67;;;1.20;;
41923;SDS011;27613;48.116;11.656;2022-10-16T05:19:51;2.33;;;1.63;;
41923;SDS011;27613;48.116;11.656;2022-10-16T05:22:16;2.22;;;1.38;;
41923;SDS011;27613;48.116;11.656;2022-10-16T05:24:42;1.63;;;1.23;;
41923;SDS011;27613;48.116;11.656;2022-10-16T05:27:08;1.88;;;1.23;;
41923;SDS011;27613;48.116;11.656;2022-10-16T05:29:34;2.00;;;1.27;;
41923;SDS011;27613;48.116;11.656;2022-10-16T05:32:00;1.88;;;1.48;;
41923;SDS011;27613;48.116;11.656;2022-10-16T05:34:25;1.85;;;1.27;;
41923;SDS011;27613;48.116;11.656;2022-10-16T05:36:51;3.17;;;1.40;;
41923;SDS011;27613;48.116;11.656;2022-10-16T05:39:16;2.75;;;1.50;;
41923;SDS011;27613;48.116;11.656;2022-10-16T05:41:42;1.58;;;1.08;;
41923;SDS011;27613;48.116;11.656;2022-10-16T05:44:08;2.40;;;1.40;;
41923;SDS011;27613;48.116;11.656;2022-10-16T05:46:34;2.50;;;1.58;;
41923;SDS011;27613;48.116;11.656;2022-10-16T05:49:00;4.78;;;1.50;;
41923;SDS011;27613;48.116;11.656;2022-10-16T05:51:25;2.15;;;1.40;;
41923;SDS011;27613;48.116;11.656;2022-10-16T05:53:51;2.17;;;1.30;;
41923;SDS011;27613;48.116;11.656;2022-10-16T05:56:17;2.08;;;1.50;;
41923;SDS011;27613;48.116;11.656;2022-10-16T05:58:43;1.92;;;1.25;;
41923;SDS011;27613;48.116;11.656;2022-10-16T06:01:13;2.65;;;1.95;;
41923;SDS011;27613;48.116;11.656;2022-10-16T06:03:40;2.10;;;1.40;;
41923;SDS011;27613;48.116;11.656;2022-10-16T06:06:07;2.53;;;1.40;;
41923;SDS011;27613;48.116;11.656;2022-10-16T06:08:37;1.92;;;1.30;;
41923;SDS011;27613;48.116;11.656;2022-10-16T06:11:04;1.65;;;1.30;;
41923;SDS011;27613;48.116;11.656;2022-10-16T06:13:30;2.33;;;1.33;;
41923;SDS011;27613;48.116;11.656;2022-10-16T06:15:57;2.13;;;1.40;;
41923;SDS011;27613;48.116;11.656;2022-10-16T06:18:26;1.90;;;1.42;;
41923;SDS011;27613;48.116;11.656;2022-10-16T06:20:53;2.15;;;1.42;;
41923;SDS011;27613;48.116;11.656;2022-10-16T06:23:19;2.13;;;1.35;;
41923;SDS011;27613;48.116;11.656;2022-10-16T06:25:45;2.75;;;1.40;;
41923;SDS011;27613;48.116;11.656;2022-10-16T06:28:11;2.60;;;1.83;;
41923;SDS011;27613;48.116;11.656;2022-10-16T06:30:38;3.28;;;1.90;;
41923;SDS011;27613;48.116;11.656;2022-10-16T06:33:03;2.28;;;1.55;;
41923;SDS011;27613;48.116;11.656;2022-10-16T06:35:29;3.40;;;1.75;;
41923;SDS011;27613;48.116;11.656;2022-10-16T06:37:56;2.72;;;1.60;;
41923;SDS011;27613;48.116;11.656;2022-10-16T06:40:22;6.05;;;1.77;;
41923;SDS011;27613;48.116;11.656;2022-10-16T06:42:48;3.97;;;1.50;;
41923;SDS011;27613;48.116;11.656;2022-10-16T06:45:14;1.33;;;1.13;;
41923;SDS011;27613;48.116;11.656;2022-10-16T06:47:40;1.75;;;1.48;;
41923;SDS011;27613;48.116;11.656;2022-10-16T06:50:05;2.47;;;1.52;;
41923;SDS011;27613;48.116;11.656;2022-10-16T06:52:32;2.88;;;1.27;;
41923;SDS011;27613;48.116;11.656;2022-10-16T06:54:58;1.80;;;1.40;;
41923;SDS011;27613;48.116;11.656;2022-10-16T06:57:24;2.85;;;1.55;;
41923;SDS011;27613;48.116;11.656;2022-10-16T06:59:50;2.38;;;1.60;;
41923;SDS011;27613;48.116;11.656;2022-10-16T07:02:15;3.25;;;1.67;;
41923;SDS011;27613;48.116;11.656;2022-10-16T07:04:41;2.38;;;1.35;;
41923;SDS011;27613;48.116;11.656;2022-10-16T07:07:06;3.50;;;1.50;;
41923;SDS011;27613;48.116;11.656;2022-10-16T07:09:32;1.80;;;1.30;;
41923;SDS011;27613;48.116;11.656;2022-10-16T07:11:57;3.05;;;2.28;;
41923;SDS011;27613;48.116;11.656;2022-10-16T07:14:23;3.45;;;2.20;;
41923;SDS011;27613;48.116;11.656;2022-10-16T07:16:49;2.97;;;1.85;;
41923;SDS011;27613;48.116;11.656;2022-10-16T07:19:14;2.05;;;1.67;;
41923;SDS011;27613;48.116;11.656;2022-10-16T07:21:42;4.47;;;2.17;;
41923;SDS011;27613;48.116;11.656;2022-10-16T07:24:12;4.90;;;2.53;;
41923;SDS011;27613;48.116;11.656;2022-10-16T07:26:40;3.22;;;1.50;;
41923;SDS011;27613;48.116;11.656;2022-10-16T07:29:09;2.85;;;1.42;;
41923;SDS011;27613;48.116;11.656;2022-10-16T07:31:38;1.85;;;1.33;;
41923;SDS011;27613;48.116;11.656;2022-10-16T07:34:05;4.10;;;1.58;;
41923;SDS011;27613;48.116;11.656;2022-10-16T07:36:31;2.22;;;1.30;;
41923;SDS011;27613;48.116;11.656;2022-10-16T07:38:58;4.97;;;1.08;;
41923;SDS011;27613;48.116;11.656;2022-10-16T07:41:23;3.97;;;1.45;;
41923;SDS011;27613;48.116;11.656;2022-10-16T07:43:49;6.10;;;1.35;;
41923;SDS011;27613;48.116;11.656;2022-10-16T07:46:17;1.27;;;1.00;;
41923;SDS011;27613;48.116;11.656;2022-10-16T07:48:43;2.08;;;1.13;;
41923;SDS011;27613;48.116;11.656;2022-10-16T07:51:12;3.72;;;1.10;;
41923;SDS011;27613;48.116;11.656;2022-10-16T07:53:42;2.13;;;1.50;;
41923;SDS011;27613;48.116;11.656;2022-10-16T07:56:08;1.75;;;1.20;;
41923;SDS011;27613;48.116;11.656;2022-10-16T07:58:35;1.98;;;1.15;;
41923;SDS011;27613;48.116;11.656;2022-10-16T08:01:05;1.48;;;1.15;;
41923;SDS011;27613;48.116;11.656;2022-10-16T08:03:32;1.60;;;1.10;;
41923;SDS011;27613;48.116;11.656;2022-10-16T08:05:58;1.67;;;1.10;;
41923;SDS011;27613;48.116;11.656;2022-10-16T08:08:25;2.15;;;1.38;;
41923;SDS011;27613;48.116;11.656;2022-10-16T08:10:51;3.03;;;1.33;;
41923;SDS011;27613;48.116;11.656;2022-10-16T08:13:17;1.70;;;1.25;;
41923;SDS011;27613;48.116;11.656;2022-10-16T08:15:43;1.38;;;1.00;;
41923;SDS011;27613;48.116;11.656;2022-10-16T08:18:10;2.83;;;1.33;;
41923;SDS011;27613;48.116;11.656;2022-10-16T08:20:37;2.30;;;1.30;;
41923;SDS011;27613;48.116;11.656;2022-10-16T08:23:03;1.73;;;1.20;;
41923;SDS011;27613;48.116;11.656;2022-10-16T08:25:29;1.17;;;1.08;;
41923;SDS011;27613;48.116;11.656;2022-10-16T08:27:55;1.05;;;0.90;;
41923;SDS011;27613;48.116;11.656;2022-10-16T08:30:21;1.10;;;0.95;;
41923;SDS011;27613;48.116;11.656;2022-10-16T08:32:48;2.05;;;1.35;;
41923;SDS011;27613;48.116;11.656;2022-10-16T08:35:13;2.65;;;1.23;;
41923;SDS011;27613;48.116;11.656;2022-10-16T08:37:40;2.15;;;1.08;;
41923;SDS011;27613;48.116;11.656;2022-10-16T08:40:06;3.03;;;1.13;;
41923;SDS011;27613;48.116;11.656;2022-10-16T08:42:47;1.67;;;1.10;;
41923;SDS011;27613;48.116;11.656;2022-10-16T08:48:33;2.38;;;1.13;;
41923;SDS011;27613;48.116;11.656;2022-10-16T08:51:15;2.08;;;1.30;;
41923;SDS011;27613;48.116;11.656;2022-10-16T08:53:55;1.92;;;1.27;;
41923;SDS011;27613;48.116;11.656;2022-10-16T08:56:28;2.13;;;1.17;;
41923;SDS011;27613;48.116;11.656;2022-10-16T08:58:54;1.52;;;1.08;;
41923;SDS011;27613;48.116;11.656;2022-10-16T09:01:22;2.72;;;1.27;;
41923;SDS011;27613;48.116;11.656;2022-10-16T09:12:00;2.35;;;1.42;;
41923;SDS011;27613;48.116;11.656;2022-10-16T09:20:03;1.30;;;1.15;;
41923;SDS011;27613;48.116;11.656;2022-10-16T09:22:32;2.20;;;0.90;;
41923;SDS011;27613;48.116;11.656;2022-10-16T09:25:01;2.67;;;0.95;;
41923;SDS011;27613;48.116;11.656;2022-10-16T09:27:36;1.42;;;0.70;;
41923;SDS011;27613;48.116;11.656;2022-10-16T09:30:12;1.10;;;0.90;;
41923;SDS011;27613;48.116;11.656;2022-10-16T09:32:39;1.70;;;1.10;;
41923;SDS011;27613;48.116;11.656;2022-10-16T09:35:10;0.98;;;0.85;;
41923;SDS011;27613;48.116;11.656;2022-10-16T09:37:50;2.25;;;1.10;;
41923;SDS011;27613;48.116;11.656;2022-10-16T09:40:38;2.05;;;1.58;;
41923;SDS011;27613;48.116;11.656;2022-10-16T09:43:17;1.95;;;1.00;;
41923;SDS011;27613;48.116;11.656;2022-10-16T09:46:00;0.98;;;0.88;;
41923;SDS011;27613;48.116;11.656;2022-10-16T09:48:43;1.60;;;0.98;;
41923;SDS011;27613;48.116;11.656;2022-10-16T09:51:23;1.67;;;0.88;;
41923;SDS011;27613;48.116;11.656;2022-10-16T09:53:56;0.80;;;0.77;;
41923;SDS011;27613;48.116;11.656;2022-10-16T09:56:34;0.93;;;0.70;;
41923;SDS011;27613;48.116;11.656;2022-10-16T09:59:10;0.85;;;0.75;;
41923;SDS011;27613;48.116;11.656;2022-10-16T10:01:41;0.57;;;0.52;;
41923;SDS011;27613;48.116;11.656;2022-10-16T10:04:21;1.73;;;0.90;;
41923;SDS011;27613;48.116;11.656;2022-10-16T10:06:49;0.85;;;0.82;;
41923;SDS011;27613;48.116;11.656;2022-10-16T10:09:22;1.17;;;0.77;;
41923;SDS011;27613;48.116;11.656;2022-10-16T10:11:56;0.80;;;0.80;;
41923;SDS011;27613;48.116;11.656;2022-10-16T10:17:07;1.02;;;0.75;;
41923;SDS011;27613;48.116;11.656;2022-10-16T10:30:52;2.53;;;1.00;;
41923;SDS011;27613;48.116;11.656;2022-10-16T10:33:28;1.08;;;0.80;;
41923;SDS011;27613;48.116;11.656;2022-10-16T10:47:18;1.17;;;0.85;;
41923;SDS011;27613;48.116;11.656;2022-10-16T11:06:08;2.90;;;0.80;;
41923;SDS011;27613;48.116;11.656;2022-10-16T11:11:44;1.58;;;0.95;;
41923;SDS011;27613;48.116;11.656;2022-10-16T11:14:22;0.85;;;0.70;;
41923;SDS011;27613;48.116;11.656;2022-10-16T11:20:18;3.33;;;0.80;;
41923;SDS011;27613;48.116;11.656;2022-10-16T11:23:01;2.70;;;0.88;;
41923;SDS011;27613;48.116;11.656;2022-10-16T11:25:35;1.42;;;0.90;;
41923;SDS011;27613;48.116;11.656;2022-10-16T11:28:02;1.08;;;0.80;;
41923;SDS011;27613;48.116;11.656;2022-10-16T11:30:41;0.43;;;0.43;;
41923;SDS011;27613;48.116;11.656;2022-10-16T11:33:18;0.93;;;0.80;;
41923;SDS011;27613;48.116;11.656;2022-10-16T11:35:49;0.63;;;0.63;;
41923;SDS011;27613;48.116;11.656;2022-10-16T11:40:53;1.10;;;0.63;;
41923;SDS011;27613;48.116;11.656;2022-10-16T11:43:30;2.05;;;0.60;;
41923;SDS011;27613;48.116;11.656;2022-10-16T11:46:04;0.40;;;0.40;;
41923;SDS011;27613;48.116;11.656;2022-10-16T11:48:41;0.35;;;0.35;;
41923;SDS011;27613;48.116;11.656;2022-10-16T11:51:14;0.70;;;0.50;;
41923;SDS011;27613;48.116;11.656;2022-10-16T11:56:16;0.68;;;0.50;;
41923;SDS011;27613;48.116;11.656;2022-10-16T12:09:27;0.98;;;0.65;;
41923;SDS011;27613;48.116;11.656;2022-10-16T12:11:54;0.70;;;0.57;;
41923;SDS011;27613;48.116;11.656;2022-10-16T12:14:22;0.65;;;0.55;;
41923;SDS011;27613;48.116;11.656;2022-10-16T12:17:26;0.47;;;0.47;;
41923;SDS011;27613;48.116;11.656;2022-10-16T12:22:40;0.90;;;0.55;;
41923;SDS011;27613;48.116;11.656;2022-10-16T12:28:19;0.50;;;0.50;;
41923;SDS011;27613;48.116;11.656;2022-10-16T12:30:54;0.60;;;0.40;;
41923;SDS011;27613;48.116;11.656;2022-10-16T12:33:22;1.10;;;0.50;;
41923;SDS011;27613;48.116;11.656;2022-10-16T12:35:50;1.33;;;0.60;;
41923;SDS011;27613;48.116;11.656;2022-10-16T12:41:23;2.15;;;0.60;;
41923;SDS011;27613;48.116;11.656;2022-10-16T12:44:00;0.30;;;0.30;;
41923;SDS011;27613;48.116;11.656;2022-10-16T12:49:05;0.50;;;0.45;;
41923;SDS011;27613;48.116;11.656;2022-10-16T12:51:37;1.38;;;0.70;;
41923;SDS011;27613;48.116;11.656;2022-10-16T13:07:39;1.08;;;0.57;;
41923;SDS011;27613;48.116;11.656;2022-10-16T13:16:20;1.02;;;0.50;;
41923;SDS011;27613;48.116;11.656;2022-10-16T13:24:40;1.40;;;0.70;;
41923;SDS011;27613;48.116;11.656;2022-10-16T13:30:19;0.73;;;0.43;;
41923;SDS011;27613;48.116;11.656;2022-10-16T13:32:49;0.38;;;0.38;;
41923;SDS011;27613;48.116;11.656;2022-10-16T13:35:26;0.50;;;0.50;;
41923;SDS011;27613;48.116;11.656;2022-10-16T13:38:04;1.02;;;0.70;;
41923;SDS011;27613;48.116;11.656;2022-10-16T13:40:30;1.75;;;0.60;;
41923;SDS011;27613;48.116;11.656;2022-10-16T13:42:55;0.40;;;0.40;;
41923;SDS011;27613;48.116;11.656;2022-10-16T13:45:22;0.50;;;0.50;;
41923;SDS011;27613;48.116;11.656;2022-10-16T13:48:02;2.70;;;0.68;;
41923;SDS011;27613;48.116;11.656;2022-10-16T13:50:29;1.05;;;0.80;;
41923;SDS011;27613;48.116;11.656;2022-10-16T13:53:05;1.08;;;0.60;;
41923;SDS011;27613;48.116;11.656;2022-10-16T13:55:39;0.50;;;0.50;;
41923;SDS011;27613;48.116;11.656;2022-10-16T13:58:10;0.40;;;0.40;;
41923;SDS011;27613;48.116;11.656;2022-10-16T14:00:38;0.67;;;0.53;;
41923;SDS011;27613;48.116;11.656;2022-10-16T14:03:05;0.70;;;0.70;;
41923;SDS011;27613;48.116;11.656;2022-10-16T14:05:41;0.73;;;0.70;;
41923;SDS011;27613;48.116;11.656;2022-10-16T14:08:16;0.55;;;0.55;;
41923;SDS011;27613;48.116;11.656;2022-10-16T14:10:42;0.80;;;0.70;;
41923;SDS011;27613;48.116;11.656;2022-10-16T14:13:13;0.80;;;0.60;;
41923;SDS011;27613;48.116;11.656;2022-10-16T14:15:48;0.90;;;0.55;;
41923;SDS011;27613;48.116;11.656;2022-10-16T14:18:18;0.47;;;0.40;;
41923;SDS011;27613;48.116;11.656;2022-10-16T14:20:46;0.40;;;0.40;;
41923;SDS011;27613;48.116;11.656;2022-10-16T14:23:29;5.85;;;0.70;;
41923;SDS011;27613;48.116;11.656;2022-10-16T14:26:05;1.10;;;0.50;;
41923;SDS011;27613;48.116;11.656;2022-10-16T14:28:39;1.85;;;0.93;;
41923;SDS011;27613;48.116;11.656;2022-10-16T14:31:29;0.60;;;0.60;;
41923;SDS011;27613;48.116;11.656;2022-10-16T14:33:53;0.80;;;0.80;;
41923;SDS011;27613;48.116;11.656;2022-10-16T14:36:18;5.18;;;0.80;;
41923;SDS011;27613;48.116;11.656;2022-10-16T14:38:50;1.25;;;0.80;;
41923;SDS011;27613;48.116;11.656;2022-10-16T14:41:26;4.55;;;0.80;;
41923;SDS011;27613;48.116;11.656;2022-10-16T14:43:53;0.65;;;0.60;;
41923;SDS011;27613;48.116;11.656;2022-10-16T14:46:22;1.20;;;0.60;;
41923;SDS011;27613;48.116;11.656;2022-10-16T14:48:59;1.55;;;0.80;;
41923;SDS011;27613;48.116;11.656;2022-10-16T14:51:34;1.42;;;0.90;;
41923;SDS011;27613;48.116;11.656;2022-10-16T14:54:01;0.52;;;0.50;;
41923;SDS011;27613;48.116;11.656;2022-10-16T14:59:33;0.90;;;0.70;;
41923;SDS011;27613;48.116;11.656;2022-10-16T15:02:06;3.28;;;0.82;;
41923;SDS011;27613;48.116;11.656;2022-10-16T15:04:53;1.00;;;0.77;;
41923;SDS011;27613;48.116;11.656;2022-10-16T15:07:19;1.05;;;0.70;;
41923;SDS011;27613;48.116;11.656;2022-10-16T15:09:44;0.95;;;0.60;;
41923;SDS011;27613;48.116;11.656;2022-10-16T15:12:10;2.13;;;1.48;;
41923;SDS011;27613;48.116;11.656;2022-10-16T15:14:36;1.17;;;0.90;;
41923;SDS011;27613;48.116;11.656;2022-10-16T15:17:02;2.42;;;0.80;;
41923;SDS011;27613;48.116;11.656;2022-10-16T15:19:27;1.85;;;1.30;;
41923;SDS011;27613;48.116;11.656;2022-10-16T15:21:53;2.00;;;1.45;;
41923;SDS011;27613;48.116;11.656;2022-10-16T15:24:19;2.35;;;1.17;;
41923;SDS011;27613;48.116;11.656;2022-10-16T15:26:44;1.35;;;0.98;;
41923;SDS011;27613;48.116;11.656;2022-10-16T15:29:14;1.33;;;1.05;;
41923;SDS011;27613;48.116;11.656;2022-10-16T15:31:40;1.77;;;0.95;;
41923;SDS011;27613;48.116;11.656;2022-10-16T15:34:08;3.45;;;1.35;;
41923;SDS011;27613;48.116;11.656;2022-10-16T15:36:36;1.88;;;1.40;;
41923;SDS011;27613;48.116;11.656;2022-10-16T15:39:03;1.83;;;1.30;;
41923;SDS011;27613;48.116;11.656;2022-10-16T15:41:30;3.53;;;1.40;;
41923;SDS011;27613;48.116;11.656;2022-10-16T15:43:55;3.13;;;1.55;;
41923;SDS011;27613;48.116;11.656;2022-10-16T15:46:22;2.70;;;1.92;;
41923;SDS011;27613;48.116;11.656;2022-10-16T15:48:49;3.28;;;1.90;;
41923;SDS011;27613;48.116;11.656;2022-10-16T15:51:16;2.58;;;1.63;;
41923;SDS011;27613;48.116;11.656;2022-10-16T15:53:42;2.75;;;1.58;;
41923;SDS011;27613;48.116;11.656;2022-10-16T15:56:11;1.55;;;1.30;;
41923;SDS011;27613;48.116;11.656;2022-10-16T15:58:37;3.60;;;1.40;;
41923;SDS011;27613;48.116;11.656;2022-10-16T16:01:02;2.92;;;1.48;;
41923;SDS011;27613;48.116;11.656;2022-10-16T16:03:29;2.38;;;1.45;;
41923;SDS011;27613;48.116;11.656;2022-10-16T16:05:55;2.25;;;1.10;;
41923;SDS011;27613;48.116;11.656;2022-10-16T16:08:21;1.42;;;1.00;;
41923;SDS011;27613;48.116;11.656;2022-10-16T16:11:00;2.10;;;1.05;;
41923;SDS011;27613;48.116;11.656;2022-10-16T16:13:28;6.63;;;1.60;;
41923;SDS011;27613;48.116;11.656;2022-10-16T16:15:54;4.07;;;1.75;;
41923;SDS011;27613;48.116;11.656;2022-10-16T16:18:20;1.60;;;1.30;;
41923;SDS011;27613;48.116;11.656;2022-10-16T16:20:45;5.90;;;1.33;;
41923;SDS011;27613;48.116;11.656;2022-10-16T16:23:11;2.90;;;1.42;;
41923;SDS011;27613;48.116;11.656;2022-10-16T16:25:37;2.05;;;1.33;;
41923;SDS011;27613;48.116;11.656;2022-10-16T16:28:02;3.50;;;1.58;;
41923;SDS011;27613;48.116;11.656;2022-10-16T16:30:28;3.63;;;1.60;;
41923;SDS011;27613;48.116;11.656;2022-10-16T16:32:53;2.38;;;1.48;;
41923;SDS011;27613;48.116;11.656;2022-10-16T16:35:19;1.75;;;1.20;;
41923;SDS011;27613;48.116;11.656;2022-10-16T16:37:46;2.50;;;1.23;;
41923;SDS011;27613;48.116;11.656;2022-10-16T16:40:11;4.25;;;1.65;;
41923;SDS011;27613;48.116;11.656;2022-10-16T16:42:37;3.33;;;1.70;;
41923;SDS011;27613;48.116;11.656;2022-10-16T16:45:03;4.00;;;1.65;;
41923;SDS011;27613;48.116;11.656;2022-10-16T16:47:28;3.85;;;1.40;;
41923;SDS011;27613;48.116;11.656;2022-10-16T16:49:54;5.82;;;1.55;;
41923;SDS011;27613;48.116;11.656;2022-10-16T16:52:20;2.67;;;1.67;;
41923;SDS011;27613;48.116;11.656;2022-10-16T16:54:47;2.42;;;1.60;;
41923;SDS011;27613;48.116;11.656;2022-10-16T16:57:16;1.92;;;1.23;;
41923;SDS011;27613;48.116;11.656;2022-10-16T16:59:45;2.78;;;1.60;;
41923;SDS011;27613;48.116;11.656;2022-10-16T17:02:11;2.15;;;1.45;;